Time;durP1;ratioP1;P1;durP2;ratioP2;P2;SDS_P1;SDS_P2;PMS_P1;PMS_P2;Temp;Humidity;BMP_temperature;BMP_pressure;BME280_temperature;BME280_humidity;BME280_pressure;Samples;Min_cycle;Max_cycle;Signal;HPM_P1;HPM_P2
2022/07/25 00:00:32;;;;;;;4.30;2.45;;;;;;;;;;4979464;28;20082;-73
2022/07/25 00:03:00;;;;;;;6.40;2.40;;;;;;;;;;4965249;28;20656;-73
2022/07/25 00:05:28;;;;;;;3.80;2.40;;;;;;;;;;4964695;28;20733;-73
2022/07/25 00:08:03;;;;;;;4.95;2.25;;;;;;;;;;4965537;28;20059;-73
2022/07/25 00:10:30;;;;;;;7.65;2.58;;;;;;;;;;4979439;28;20097;-73
2022/07/25 00:12:58;;;;;;;4.07;2.30;;;;;;;;;;4965247;28;20051;-73
2022/07/25 00:15:25;;;;;;;3.40;2.22;;;;;;;;;;4965287;28;20818;-73
2022/07/25 00:17:53;;;;;;;2.67;2.10;;;;;;;;;;4965163;28;20055;-73
2022/07/25 00:20:20;;;;;;;10.43;2.22;;;;;;;;;;4997630;28;20836;-73
2022/07/25 00:22:47;;;;;;;7.05;2.60;;;;;;;;;;4983050;28;20058;-74
2022/07/25 00:25:16;;;;;;;6.55;2.03;;;;;;;;;;4971374;28;20047;-74
2022/07/25 00:27:43;;;;;;;2.58;1.90;;;;;;;;;;4969375;28;20061;-74
2022/07/25 00:30:11;;;;;;;4.68;2.25;;;;;;;;;;4976469;28;20530;-74
2022/07/25 00:32:38;;;;;;;4.05;2.33;;;;;;;;;;4976714;28;20050;-74
2022/07/25 00:35:06;;;;;;;3.42;2.10;;;;;;;;;;4960298;28;20074;-73
2022/07/25 00:37:34;;;;;;;4.40;2.40;;;;;;;;;;4972422;28;20558;-73
2022/07/25 00:40:01;;;;;;;2.97;2.20;;;;;;;;;;4983947;28;20051;-74
2022/07/25 00:42:29;;;;;;;2.97;2.30;;;;;;;;;;4988155;28;20051;-73
2022/07/25 00:44:58;;;;;;;6.65;2.40;;;;;;;;;;4962921;28;20043;-74
2022/07/25 00:47:26;;;;;;;6.95;2.30;;;;;;;;;;4991290;28;20077;-74
2022/07/25 00:49:53;;;;;;;7.72;2.35;;;;;;;;;;4972080;28;20055;-73
2022/07/25 00:52:22;;;;;;;7.97;2.60;;;;;;;;;;4978486;28;20047;-73
2022/07/25 00:54:50;;;;;;;2.72;1.83;;;;;;;;;;4970282;28;20435;-73
2022/07/25 00:57:17;;;;;;;3.58;2.08;;;;;;;;;;4970178;28;20055;-74
2022/07/25 00:59:44;;;;;;;4.32;2.40;;;;;;;;;;4988357;28;20059;-73
2022/07/25 01:02:12;;;;;;;5.60;2.20;;;;;;;;;;4988996;28;20059;-73
2022/07/25 01:04:40;;;;;;;2.08;1.75;;;;;;;;;;4973970;28;20055;-73
2022/07/25 01:07:07;;;;;;;3.75;2.00;;;;;;;;;;4985894;28;20570;-73
2022/07/25 01:09:35;;;;;;;5.60;2.17;;;;;;;;;;4974818;28;20050;-73
2022/07/25 01:12:02;;;;;;;3.03;2.30;;;;;;;;;;4974125;28;20051;-73
2022/07/25 01:14:29;;;;;;;4.30;2.20;;;;;;;;;;4970952;28;20046;-74
2022/07/25 01:16:57;;;;;;;2.42;2.05;;;;;;;;;;4965991;28;20055;-73
2022/07/25 01:19:24;;;;;;;2.67;2.40;;;;;;;;;;4970117;28;20121;-73
2022/07/25 01:21:51;;;;;;;3.15;2.08;;;;;;;;;;4977117;28;20447;-73
2022/07/25 01:24:18;;;;;;;3.25;2.30;;;;;;;;;;4967607;28;20074;-73
2022/07/25 01:26:46;;;;;;;3.60;2.15;;;;;;;;;;4962712;28;20124;-73
2022/07/25 01:29:13;;;;;;;5.22;2.40;;;;;;;;;;4976886;28;20491;-73
2022/07/25 01:31:40;;;;;;;6.03;2.30;;;;;;;;;;4964807;28;20113;-73
2022/07/25 01:34:08;;;;;;;8.45;2.33;;;;;;;;;;4978768;28;20377;-73
2022/07/25 01:36:36;;;;;;;3.30;2.30;;;;;;;;;;4963558;28;21506;-73
2022/07/25 01:39:03;;;;;;;4.35;2.10;;;;;;;;;;4966355;28;20066;-73
2022/07/25 01:41:30;;;;;;;3.65;1.88;;;;;;;;;;4975688;28;20054;-73
2022/07/25 01:43:58;;;;;;;8.35;2.13;;;;;;;;;;4987901;28;20050;-73
2022/07/25 01:46:25;;;;;;;2.67;1.77;;;;;;;;;;4981664;28;20054;-73
2022/07/25 01:48:53;;;;;;;6.40;2.42;;;;;;;;;;4980297;28;20047;-73
2022/07/25 01:51:20;;;;;;;7.40;2.58;;;;;;;;;;4977895;28;20051;-73
2022/07/25 01:53:48;;;;;;;2.50;2.00;;;;;;;;;;4972467;28;20560;-74
2022/07/25 01:56:15;;;;;;;5.50;2.25;;;;;;;;;;4973998;28;20839;-73
2022/07/25 01:58:45;;;;;;;3.35;2.45;;;;;;;;;;4990751;28;20061;-74
2022/07/25 02:01:12;;;;;;;3.03;2.05;;;;;;;;;;4969982;28;20059;-73
2022/07/25 02:03:40;;;;;;;3.13;2.05;;;;;;;;;;4996806;28;20068;-74
2022/07/25 02:06:08;;;;;;;3.00;2.20;;;;;;;;;;4978442;28;20537;-73
2022/07/25 02:08:35;;;;;;;2.78;2.22;;;;;;;;;;4980688;28;20062;-73
2022/07/25 02:11:02;;;;;;;2.65;2.13;;;;;;;;;;4988780;28;20050;-73
2022/07/25 02:13:30;;;;;;;3.25;2.20;;;;;;;;;;4997836;28;20055;-73
2022/07/25 02:15:57;;;;;;;9.27;2.85;;;;;;;;;;4975415;28;20108;-73
2022/07/25 02:18:25;;;;;;;4.25;2.40;;;;;;;;;;4994572;28;20051;-73
2022/07/25 02:20:52;;;;;;;8.20;2.20;;;;;;;;;;4989378;28;20665;-73
2022/07/25 02:23:19;;;;;;;9.25;2.33;;;;;;;;;;4972463;28;20869;-74
2022/07/25 02:25:47;;;;;;;2.88;2.08;;;;;;;;;;4982244;28;20109;-73
2022/07/25 02:28:14;;;;;;;3.83;1.80;;;;;;;;;;4994586;28;20054;-73
2022/07/25 02:30:41;;;;;;;4.03;2.10;;;;;;;;;;4991229;28;20050;-74
2022/07/25 02:33:09;;;;;;;2.50;2.30;;;;;;;;;;4966722;28;20134;-74
2022/07/25 02:35:36;;;;;;;7.63;2.22;;;;;;;;;;4970240;28;20054;-74
2022/07/25 02:38:03;;;;;;;6.10;2.30;;;;;;;;;;4968712;28;20781;-74
2022/07/25 02:40:31;;;;;;;4.80;2.05;;;;;;;;;;4976196;28;20508;-74
2022/07/25 02:42:58;;;;;;;3.50;2.38;;;;;;;;;;4976098;28;20456;-73
2022/07/25 02:45:25;;;;;;;2.63;1.92;;;;;;;;;;4987943;28;20101;-74
2022/07/25 02:47:53;;;;;;;9.57;2.60;;;;;;;;;;4979175;28;20042;-73
2022/07/25 02:50:22;;;;;;;3.28;2.13;;;;;;;;;;4973158;28;20082;-73
2022/07/25 02:52:50;;;;;;;4.80;2.50;;;;;;;;;;4968420;28;20723;-73
2022/07/25 02:55:17;;;;;;;3.83;2.60;;;;;;;;;;4987843;28;20059;-74
2022/07/25 02:57:44;;;;;;;3.50;2.47;;;;;;;;;;4971734;28;20104;-74
2022/07/25 03:00:12;;;;;;;3.60;2.30;;;;;;;;;;4979091;28;20058;-74
2022/07/25 03:02:40;;;;;;;5.10;2.80;;;;;;;;;;4977423;28;20054;-74
2022/07/25 03:05:08;;;;;;;2.65;2.30;;;;;;;;;;4975746;28;20105;-73
2022/07/25 03:07:36;;;;;;;5.35;2.45;;;;;;;;;;4977459;28;20102;-73
2022/07/25 03:10:04;;;;;;;3.50;2.33;;;;;;;;;;4999178;28;20096;-73
2022/07/25 03:12:37;;;;;;;4.85;2.30;;;;;;;;;;4985726;28;20077;-73
2022/07/25 03:15:06;;;;;;;4.45;2.45;;;;;;;;;;4989752;28;20050;-73
2022/07/25 03:17:33;;;;;;;4.18;2.42;;;;;;;;;;4980777;28;20511;-74
2022/07/25 03:20:01;;;;;;;5.18;2.33;;;;;;;;;;4980661;28;20058;-73
2022/07/25 03:22:28;;;;;;;6.28;2.60;;;;;;;;;;4977400;28;20059;-73
2022/07/25 03:24:55;;;;;;;5.82;2.80;;;;;;;;;;4969499;28;20218;-74
2022/07/25 03:27:23;;;;;;;3.80;2.33;;;;;;;;;;4974644;28;20047;-73
2022/07/25 03:29:50;;;;;;;4.65;2.90;;;;;;;;;;4975308;28;20192;-73
2022/07/25 03:32:17;;;;;;;5.65;2.65;;;;;;;;;;4971603;28;20054;-74
2022/07/25 03:34:45;;;;;;;7.82;2.72;;;;;;;;;;4978146;28;20062;-74
2022/07/25 03:37:12;;;;;;;3.83;2.50;;;;;;;;;;4968279;28;20054;-74
2022/07/25 03:39:39;;;;;;;4.72;2.40;;;;;;;;;;4968632;28;20055;-74
2022/07/25 03:42:07;;;;;;;4.72;2.65;;;;;;;;;;4979743;28;20050;-74
2022/07/25 03:44:36;;;;;;;3.63;2.67;;;;;;;;;;4994279;28;20439;-74
2022/07/25 03:47:04;;;;;;;6.43;2.80;;;;;;;;;;4985039;28;20117;-74
2022/07/25 03:49:32;;;;;;;2.67;2.35;;;;;;;;;;4986541;28;20101;-74
2022/07/25 03:51:59;;;;;;;6.93;2.83;;;;;;;;;;4991293;28;20093;-73
2022/07/25 03:54:27;;;;;;;14.93;3.35;;;;;;;;;;4990576;28;20054;-73
2022/07/25 03:56:55;;;;;;;4.60;3.05;;;;;;;;;;4973443;28;20046;-73
2022/07/25 03:59:22;;;;;;;3.58;2.63;;;;;;;;;;4972663;28;20081;-73
2022/07/25 04:01:50;;;;;;;3.95;2.40;;;;;;;;;;4980835;28;20865;-73
2022/07/25 04:04:32;;;;;;;5.43;2.60;;;;;;;;;;4972882;28;20059;-73
2022/07/25 04:06:59;;;;;;;4.60;2.20;;;;;;;;;;4965004;28;20231;-73
2022/07/25 04:09:26;;;;;;;3.85;1.95;;;;;;;;;;4945273;28;20074;-73
2022/07/25 04:11:59;;;;;;;2.63;2.13;;;;;;;;;;4959478;28;20086;-73
2022/07/25 04:14:26;;;;;;;3.05;1.98;;;;;;;;;;4970689;28;20587;-73
2022/07/25 04:20:36;;;;;;;3.03;2.10;;;;;;;;;;4998717;28;20450;-73
2022/07/25 04:23:03;;;;;;;5.80;2.30;;;;;;;;;;4997300;28;20135;-73
2022/07/25 04:25:30;;;;;;;3.13;2.03;;;;;;;;;;5001320;28;20136;-73
2022/07/25 04:27:58;;;;;;;2.38;1.83;;;;;;;;;;5001434;28;20152;-73
2022/07/25 04:30:25;;;;;;;2.38;1.88;;;;;;;;;;5000292;28;20157;-73
2022/07/25 04:32:53;;;;;;;5.43;2.20;;;;;;;;;;5001440;28;20105;-73
2022/07/25 04:35:20;;;;;;;5.15;1.85;;;;;;;;;;5001679;28;20133;-73
2022/07/25 04:37:48;;;;;;;2.45;1.40;;;;;;;;;;5001584;28;20535;-73
2022/07/25 04:40:15;;;;;;;4.88;2.00;;;;;;;;;;5005746;28;20111;-73
2022/07/25 04:42:42;;;;;;;6.57;2.60;;;;;;;;;;5003302;28;20100;-73
2022/07/25 04:45:10;;;;;;;2.38;2.00;;;;;;;;;;5002014;28;20682;-73
2022/07/25 04:47:37;;;;;;;3.17;2.10;;;;;;;;;;5002943;28;20590;-73
2022/07/25 04:50:05;;;;;;;3.22;2.20;;;;;;;;;;5002572;28;20601;-73
2022/07/25 04:52:32;;;;;;;4.93;1.80;;;;;;;;;;5002805;28;20140;-73
2022/07/25 04:54:59;;;;;;;2.63;2.00;;;;;;;;;;5003863;28;20188;-73
2022/07/25 04:57:27;;;;;;;3.30;2.17;;;;;;;;;;5004002;28;20046;-73
2022/07/25 05:03:13;;;;;;;8.60;2.08;;;;;;;;;;4985816;28;20132;-74
2022/07/25 05:05:41;;;;;;;4.55;2.20;;;;;;;;;;4986503;28;20082;-74
2022/07/25 05:08:08;;;;;;;2.75;2.00;;;;;;;;;;4987384;28;20161;-74
2022/07/25 05:10:35;;;;;;;2.45;1.80;;;;;;;;;;4984383;28;20161;-73
2022/07/25 05:13:02;;;;;;;3.05;1.73;;;;;;;;;;4983279;28;20089;-73
2022/07/25 05:15:30;;;;;;;2.85;1.92;;;;;;;;;;5000531;28;20050;-74
2022/07/25 05:17:57;;;;;;;6.65;2.20;;;;;;;;;;4999823;28;20074;-73
2022/07/25 05:20:24;;;;;;;9.80;2.42;;;;;;;;;;4983513;28;20069;-74
2022/07/25 05:22:52;;;;;;;3.47;2.33;;;;;;;;;;4988050;28;20129;-75
2022/07/25 05:25:19;;;;;;;3.88;2.20;;;;;;;;;;5007226;28;20458;-77
2022/07/25 05:27:47;;;;;;;4.53;2.45;;;;;;;;;;4992021;28;20132;-76
2022/07/25 05:30:14;;;;;;;6.47;2.42;;;;;;;;;;4992670;28;20108;-78
2022/07/25 05:32:42;;;;;;;5.50;2.03;;;;;;;;;;4995353;28;20074;-76
2022/07/25 05:35:09;;;;;;;4.18;2.20;;;;;;;;;;5004754;28;20050;-77
2022/07/25 05:37:37;;;;;;;3.13;2.25;;;;;;;;;;4995147;28;20100;-75
2022/07/25 05:40:06;;;;;;;4.25;2.30;;;;;;;;;;4994228;28;20078;-75
2022/07/25 05:42:33;;;;;;;6.65;2.95;;;;;;;;;;4992142;28;20514;-74
2022/07/25 05:45:01;;;;;;;3.78;2.25;;;;;;;;;;4987418;28;20180;-73
2022/07/25 05:47:28;;;;;;;113.82;5.93;;;;;;;;;;5003289;28;20165;-74
2022/07/25 05:49:55;;;;;;;5.18;2.00;;;;;;;;;;4987965;28;20113;-73
2022/07/25 05:52:23;;;;;;;5.20;2.30;;;;;;;;;;4988347;28;20077;-73
2022/07/25 05:54:50;;;;;;;5.97;1.90;;;;;;;;;;4988919;28;20157;-73
2022/07/25 05:57:18;;;;;;;3.92;1.90;;;;;;;;;;5002312;28;20156;-74
2022/07/25 05:59:45;;;;;;;5.70;2.20;;;;;;;;;;4987972;28;20050;-73
2022/07/25 06:02:12;;;;;;;6.60;2.58;;;;;;;;;;4988035;28;20699;-73
2022/07/25 06:04:40;;;;;;;6.13;2.40;;;;;;;;;;4987729;28;20058;-73
2022/07/25 06:07:07;;;;;;;3.85;2.13;;;;;;;;;;4988319;28;20137;-74
2022/07/25 06:09:37;;;;;;;2.97;2.22;;;;;;;;;;4988409;28;20050;-73
2022/07/25 06:12:05;;;;;;;4.95;2.45;;;;;;;;;;4989213;28;20078;-73
2022/07/25 06:14:32;;;;;;;3.45;2.40;;;;;;;;;;4990119;28;20133;-73
2022/07/25 06:16:59;;;;;;;2.75;2.08;;;;;;;;;;4989484;28;20074;-73
2022/07/25 06:19:27;;;;;;;3.83;2.30;;;;;;;;;;5003524;28;20137;-73
2022/07/25 06:21:54;;;;;;;7.10;2.40;;;;;;;;;;4986039;28;20144;-73
2022/07/25 06:24:21;;;;;;;10.70;2.70;;;;;;;;;;5000837;28;20051;-72
2022/07/25 06:26:49;;;;;;;6.22;2.20;;;;;;;;;;4993628;28;20145;-73
2022/07/25 06:29:16;;;;;;;10.40;2.83;;;;;;;;;;4989418;28;20129;-73
2022/07/25 06:31:43;;;;;;;13.13;2.60;;;;;;;;;;4987887;28;20145;-73
2022/07/25 06:34:13;;;;;;;3.40;2.45;;;;;;;;;;4980294;28;20739;-73
2022/07/25 06:36:40;;;;;;;3.85;2.60;;;;;;;;;;4988467;28;20077;-73
2022/07/25 06:39:08;;;;;;;6.78;2.72;;;;;;;;;;5007613;28;20196;-72
2022/07/25 06:41:36;;;;;;;9.85;2.90;;;;;;;;;;4988309;28;20082;-73
2022/07/25 06:44:03;;;;;;;10.40;2.95;;;;;;;;;;4987634;28;20054;-74
2022/07/25 06:46:31;;;;;;;9.00;3.28;;;;;;;;;;4988575;28;20054;-74
2022/07/25 06:48:59;;;;;;;3.63;2.17;;;;;;;;;;5021283;28;20050;-74
2022/07/25 06:51:26;;;;;;;4.53;2.25;;;;;;;;;;4992442;28;20384;-74
2022/07/25 06:53:55;;;;;;;4.63;2.50;;;;;;;;;;4986893;28;20452;-74
2022/07/25 06:56:22;;;;;;;7.03;2.47;;;;;;;;;;4986485;28;20052;-74
2022/07/25 06:58:50;;;;;;;3.63;2.80;;;;;;;;;;4985238;28;20135;-74
2022/07/25 07:01:17;;;;;;;3.97;2.50;;;;;;;;;;4985629;28;20161;-74
2022/07/25 07:03:44;;;;;;;4.53;2.88;;;;;;;;;;4984811;28;20089;-74
2022/07/25 07:06:12;;;;;;;6.03;2.50;;;;;;;;;;4987152;28;20116;-74
2022/07/25 07:08:39;;;;;;;15.35;3.88;;;;;;;;;;4987088;28;20462;-74
2022/07/25 07:11:06;;;;;;;3.75;2.60;;;;;;;;;;4986849;28;20555;-74
2022/07/25 07:13:34;;;;;;;6.05;2.53;;;;;;;;;;5001553;28;20136;-74
2022/07/25 07:16:02;;;;;;;5.05;2.50;;;;;;;;;;5002507;28;20134;-74
2022/07/25 07:18:29;;;;;;;6.32;2.72;;;;;;;;;;4986340;28;20058;-74
2022/07/25 07:20:57;;;;;;;8.50;3.22;;;;;;;;;;4998495;28;20141;-74
2022/07/25 07:23:24;;;;;;;9.00;3.67;;;;;;;;;;4977774;28;20112;-74
2022/07/25 07:25:55;;;;;;;9.13;3.10;;;;;;;;;;4987620;28;20046;-74
2022/07/25 07:28:22;;;;;;;10.65;3.00;;;;;;;;;;4986110;28;20590;-74
2022/07/25 07:30:49;;;;;;;4.13;3.00;;;;;;;;;;4986596;28;20142;-74
2022/07/25 07:33:37;;;;;;;9.40;2.50;;;;;;;;;;4983463;28;20050;-74
2022/07/25 07:36:04;;;;;;;8.95;3.15;;;;;;;;;;4986025;28;20150;-74
2022/07/25 07:38:32;;;;;;;7.28;3.00;;;;;;;;;;4998691;28;20474;-74
2022/07/25 07:40:59;;;;;;;9.88;3.78;;;;;;;;;;4982436;28;20133;-73
2022/07/25 07:43:28;;;;;;;5.40;3.30;;;;;;;;;;4995862;28;20132;-73
2022/07/25 07:45:59;;;;;;;9.52;3.38;;;;;;;;;;5002231;28;20113;-73
2022/07/25 07:48:28;;;;;;;4.25;2.88;;;;;;;;;;4986145;28;20050;-73
2022/07/25 07:50:55;;;;;;;4.70;3.10;;;;;;;;;;4987814;28;20156;-73
2022/07/25 07:55:42;;;;;;;5.90;3.20;;;;;;;;;;4983937;28;20132;-73
2022/07/25 07:56:11;;;;;;;8.98;3.15;;;;;;;;;;4982306;28;20145;-73
2022/07/25 07:58:38;;;;;;;5.05;3.05;;;;;;;;;;5001913;28;20463;-73
2022/07/25 08:01:05;;;;;;;7.80;3.17;;;;;;;;;;4999226;28;20834;-73
2022/07/25 08:03:33;;;;;;;11.73;3.80;;;;;;;;;;4985454;28;20061;-73
2022/07/25 08:06:00;;;;;;;6.78;3.55;;;;;;;;;;5001803;28;20050;-73
2022/07/25 08:08:27;;;;;;;6.10;3.17;;;;;;;;;;4986461;28;20085;-73
2022/07/25 08:10:58;;;;;;;4.35;3.05;;;;;;;;;;4985487;28;20055;-73
2022/07/25 08:13:28;;;;;;;6.97;3.72;;;;;;;;;;4985325;28;20058;-74
2022/07/25 08:15:58;;;;;;;8.63;3.83;;;;;;;;;;4999207;28;20399;-74
2022/07/25 08:18:26;;;;;;;7.88;3.50;;;;;;;;;;4984112;28;20057;-73
2022/07/25 08:20:53;;;;;;;8.63;3.50;;;;;;;;;;4984059;28;20149;-73
2022/07/25 08:23:21;;;;;;;12.38;3.97;;;;;;;;;;4981382;28;20086;-73
2022/07/25 08:25:48;;;;;;;8.82;3.63;;;;;;;;;;4973330;28;20049;-73
2022/07/25 08:28:16;;;;;;;15.85;4.13;;;;;;;;;;4983200;28;20046;-73
2022/07/25 08:30:43;;;;;;;11.48;4.00;;;;;;;;;;4982962;28;20054;-73
2022/07/25 08:33:12;;;;;;;7.68;3.47;;;;;;;;;;4981326;28;20161;-74
2022/07/25 08:35:40;;;;;;;5.85;3.78;;;;;;;;;;5000421;28;20050;-74
2022/07/25 08:38:10;;;;;;;7.57;3.75;;;;;;;;;;4996667;28;20134;-74
2022/07/25 08:40:37;;;;;;;5.60;4.13;;;;;;;;;;4967727;28;20090;-74
2022/07/25 08:43:05;;;;;;;14.82;4.07;;;;;;;;;;4982001;28;20070;-74
2022/07/25 08:45:33;;;;;;;25.30;5.00;;;;;;;;;;4986989;28;20089;-74
2022/07/25 08:48:00;;;;;;;8.38;4.40;;;;;;;;;;4987260;28;20049;-74
2022/07/25 08:50:28;;;;;;;9.57;4.00;;;;;;;;;;4986994;28;20081;-74
2022/07/25 08:52:56;;;;;;;15.65;4.50;;;;;;;;;;4995052;28;20153;-74
2022/07/25 08:55:44;;;;;;;6.38;4.13;;;;;;;;;;4987858;28;20065;-74
2022/07/25 08:58:13;;;;;;;6.38;4.45;;;;;;;;;;4993288;28;20522;-74
2022/07/25 09:00:40;;;;;;;11.32;4.38;;;;;;;;;;4992297;28;20534;-74
2022/07/25 09:03:08;;;;;;;23.95;4.68;;;;;;;;;;4989878;28;20466;-74
2022/07/25 09:05:36;;;;;;;8.02;4.65;;;;;;;;;;5003550;28;20570;-74
2022/07/25 09:08:15;;;;;;;7.55;4.45;;;;;;;;;;4987404;28;20151;-74
2022/07/25 09:10:47;;;;;;;8.48;4.65;;;;;;;;;;5004775;28;20452;-73
2022/07/25 09:13:15;;;;;;;7.07;4.70;;;;;;;;;;4992137;28;20078;-73
2022/07/25 09:15:47;;;;;;;8.20;4.75;;;;;;;;;;4992234;28;20104;-74
2022/07/25 09:18:17;;;;;;;5.70;4.78;;;;;;;;;;5001445;28;20088;-74
2022/07/25 09:20:47;;;;;;;8.23;5.43;;;;;;;;;;4991428;28;20104;-74
2022/07/25 09:23:27;;;;;;;5.72;4.57;;;;;;;;;;4991212;28;20145;-74
2022/07/25 09:26:20;;;;;;;8.32;5.70;;;;;;;;;;4987667;28;20089;-74
2022/07/25 09:28:50;;;;;;;5.80;5.20;;;;;;;;;;4984877;28;20078;-74
2022/07/25 09:31:21;;;;;;;19.70;5.13;;;;;;;;;;4990546;28;20624;-74
2022/07/25 09:33:50;;;;;;;10.93;4.80;;;;;;;;;;5005488;28;20054;-74
2022/07/25 09:36:18;;;;;;;7.10;4.75;;;;;;;;;;5006887;28;20080;-74
2022/07/25 09:38:55;;;;;;;7.57;5.18;;;;;;;;;;4992403;28;20046;-74
2022/07/25 09:41:32;;;;;;;13.60;5.70;;;;;;;;;;4990638;28;20057;-74
2022/07/25 09:43:59;;;;;;;10.40;5.55;;;;;;;;;;5000920;28;20073;-75
2022/07/25 09:46:30;;;;;;;12.85;6.00;;;;;;;;;;5020562;23;20546;-74
2022/07/25 09:48:59;;;;;;;13.00;5.30;;;;;;;;;;4986966;28;20073;-74
2022/07/25 09:51:27;;;;;;;11.85;5.50;;;;;;;;;;5005794;23;20541;-74
2022/07/25 09:53:54;;;;;;;16.73;5.22;;;;;;;;;;5009993;28;20092;-74
2022/07/25 09:56:22;;;;;;;14.55;5.90;;;;;;;;;;4995564;28;20050;-74
2022/07/25 09:58:49;;;;;;;8.02;5.32;;;;;;;;;;5002203;28;20131;-74
2022/07/25 10:01:20;;;;;;;9.40;6.07;;;;;;;;;;5009453;28;20439;-74
2022/07/25 10:04:03;;;;;;;8.45;5.63;;;;;;;;;;5009398;28;20093;-73
2022/07/25 10:06:39;;;;;;;10.73;6.20;;;;;;;;;;5008192;28;20057;-74
2022/07/25 10:09:10;;;;;;;8.80;5.63;;;;;;;;;;5003575;28;20124;-74
2022/07/25 10:11:38;;;;;;;9.52;5.25;;;;;;;;;;5007507;28;20125;-74
2022/07/25 10:14:12;;;;;;;9.43;5.28;;;;;;;;;;5006882;28;20081;-74
2022/07/25 10:16:46;;;;;;;11.07;5.87;;;;;;;;;;5007053;28;20144;-74
2022/07/25 10:19:14;;;;;;;10.80;5.90;;;;;;;;;;5006154;28;20832;-74
2022/07/25 10:21:42;;;;;;;5.78;4.88;;;;;;;;;;5000249;28;20137;-74
2022/07/25 10:24:10;;;;;;;9.05;5.30;;;;;;;;;;5006708;28;20408;-74
2022/07/25 10:26:39;;;;;;;9.95;5.78;;;;;;;;;;5006631;28;20423;-73
2022/07/25 10:29:08;;;;;;;6.45;5.13;;;;;;;;;;5003566;28;20128;-74
2022/07/25 10:31:41;;;;;;;9.63;6.10;;;;;;;;;;5019982;28;20077;-74
2022/07/25 10:34:16;;;;;;;9.10;5.30;;;;;;;;;;5006247;28;20928;-74
2022/07/25 10:36:45;;;;;;;9.30;5.88;;;;;;;;;;5004536;28;20164;-73
2022/07/25 10:39:14;;;;;;;18.88;6.63;;;;;;;;;;5000833;28;20145;-73
2022/07/25 10:41:52;;;;;;;10.95;5.80;;;;;;;;;;5006530;28;20153;-73
2022/07/25 10:44:20;;;;;;;8.32;5.95;;;;;;;;;;5006313;28;20095;-74
2022/07/25 10:46:49;;;;;;;10.18;5.97;;;;;;;;;;5003779;28;20446;-74
2022/07/25 10:52:30;;;;;;;8.93;5.68;;;;;;;;;;4947057;28;20051;-74
2022/07/25 10:54:58;;;;;;;8.18;5.75;;;;;;;;;;4949656;29;20130;-74
2022/07/25 10:57:26;;;;;;;8.07;5.78;;;;;;;;;;4947988;28;20148;-74
2022/07/25 11:00:05;;;;;;;6.93;5.45;;;;;;;;;;4948709;29;20051;-74
2022/07/25 11:02:32;;;;;;;8.60;6.38;;;;;;;;;;4962674;28;20051;-73
2022/07/25 11:05:01;;;;;;;12.98;6.60;;;;;;;;;;4950234;28;20055;-74
2022/07/25 11:07:34;;;;;;;9.75;5.80;;;;;;;;;;4950329;29;20109;-74
2022/07/25 11:10:04;;;;;;;8.60;6.13;;;;;;;;;;4950011;28;20051;-74
2022/07/25 11:12:32;;;;;;;6.63;5.53;;;;;;;;;;4949997;28;20155;-74
2022/07/25 11:15:00;;;;;;;9.80;6.03;;;;;;;;;;4964522;28;20083;-74
2022/07/25 11:17:28;;;;;;;10.05;6.35;;;;;;;;;;4955509;28;20087;-74
2022/07/25 11:19:56;;;;;;;6.53;5.57;;;;;;;;;;4940240;28;20089;-74
2022/07/25 11:22:24;;;;;;;10.43;6.25;;;;;;;;;;4945967;28;20150;-74
2022/07/25 11:24:51;;;;;;;8.35;6.57;;;;;;;;;;4946429;28;20716;-74
2022/07/25 11:27:23;;;;;;;22.00;6.63;;;;;;;;;;4963199;28;20130;-74
2022/07/25 11:29:50;;;;;;;28.73;8.13;;;;;;;;;;4944121;29;20416;-75
2022/07/25 11:32:18;;;;;;;13.02;6.10;;;;;;;;;;4945001;28;20454;-75
2022/07/25 11:34:49;;;;;;;13.82;6.03;;;;;;;;;;4960912;28;20054;-75
2022/07/25 11:37:18;;;;;;;9.95;6.05;;;;;;;;;;4962828;28;20357;-75
2022/07/25 11:39:46;;;;;;;8.55;6.10;;;;;;;;;;4947278;29;20102;-75
2022/07/25 11:42:17;;;;;;;20.25;6.07;;;;;;;;;;4947499;28;20137;-75
2022/07/25 11:44:52;;;;;;;10.40;6.32;;;;;;;;;;4946789;29;20166;-75
2022/07/25 11:47:30;;;;;;;7.60;5.87;;;;;;;;;;4946761;29;20146;-75
2022/07/25 11:49:59;;;;;;;10.60;6.30;;;;;;;;;;4940192;28;20154;-76
2022/07/25 11:52:34;;;;;;;9.07;5.65;;;;;;;;;;4961723;28;20082;-75
2022/07/25 11:55:02;;;;;;;18.48;6.47;;;;;;;;;;4937925;28;20051;-75
2022/07/25 11:57:31;;;;;;;10.88;6.05;;;;;;;;;;4957466;28;20137;-76
2022/07/25 11:59:59;;;;;;;8.43;6.38;;;;;;;;;;4937221;28;20082;-75
2022/07/25 12:02:29;;;;;;;10.70;6.55;;;;;;;;;;4959702;28;20555;-76
2022/07/25 12:05:01;;;;;;;7.53;5.43;;;;;;;;;;4956714;28;20388;-76
2022/07/25 12:07:39;;;;;;;10.02;6.22;;;;;;;;;;4965677;28;20801;-76
2022/07/25 12:10:08;;;;;;;39.13;8.07;;;;;;;;;;4947605;28;20483;-76
2022/07/25 12:12:52;;;;;;;6.57;5.72;;;;;;;;;;4947621;28;20055;-78
2022/07/25 12:15:23;;;;;;;10.68;5.93;;;;;;;;;;4944875;28;20571;-75
2022/07/25 12:17:51;;;;;;;9.52;6.38;;;;;;;;;;4943944;28;20059;-73
2022/07/25 12:20:20;;;;;;;12.63;6.68;;;;;;;;;;4945549;28;20062;-73
2022/07/25 12:22:49;;;;;;;17.50;6.57;;;;;;;;;;4959885;28;20137;-74
2022/07/25 12:25:16;;;;;;;10.70;5.90;;;;;;;;;;4943737;28;20075;-74
2022/07/25 12:27:43;;;;;;;10.02;6.60;;;;;;;;;;4957980;28;20048;-74
2022/07/25 12:30:11;;;;;;;8.35;5.93;;;;;;;;;;4947322;28;20089;-74
2022/07/25 12:32:39;;;;;;;7.95;6.72;;;;;;;;;;4962566;28;20070;-73
2022/07/25 12:35:07;;;;;;;11.85;6.88;;;;;;;;;;4939939;29;20133;-74
2022/07/25 12:37:35;;;;;;;11.85;6.88;;;;;;;;;;4961437;28;20134;-73
2022/07/25 12:40:02;;;;;;;11.07;7.00;;;;;;;;;;4960976;28;20134;-73
2022/07/25 12:42:30;;;;;;;13.65;6.60;;;;;;;;;;4948650;28;20094;-74
2022/07/25 12:44:57;;;;;;;7.57;6.63;;;;;;;;;;4961763;28;20138;-74
2022/07/25 12:47:25;;;;;;;15.85;6.90;;;;;;;;;;4957353;28;20146;-74
2022/07/25 12:49:52;;;;;;;13.10;6.10;;;;;;;;;;4945873;28;20102;-73
2022/07/25 12:52:19;;;;;;;9.65;6.93;;;;;;;;;;4946075;28;20141;-74
2022/07/25 12:54:47;;;;;;;9.68;6.10;;;;;;;;;;4961151;28;20082;-73
2022/07/25 12:57:16;;;;;;;12.85;6.68;;;;;;;;;;4962538;28;20050;-74
2022/07/25 12:59:43;;;;;;;9.75;6.53;;;;;;;;;;4943816;28;20162;-74
2022/07/25 13:02:11;;;;;;;7.95;6.15;;;;;;;;;;4957225;28;20915;-74
2022/07/25 13:04:38;;;;;;;7.60;6.40;;;;;;;;;;4948416;28;20055;-74
2022/07/25 13:07:06;;;;;;;8.65;6.32;;;;;;;;;;4961851;28;20581;-74
2022/07/25 13:09:33;;;;;;;18.23;6.82;;;;;;;;;;4946915;28;20141;-74
2022/07/25 13:12:00;;;;;;;9.98;6.25;;;;;;;;;;4958502;28;20138;-74
2022/07/25 13:14:28;;;;;;;8.93;5.93;;;;;;;;;;4929096;29;20158;-74
2022/07/25 13:16:55;;;;;;;14.10;7.82;;;;;;;;;;4940971;29;20153;-74
2022/07/25 13:19:23;;;;;;;11.90;5.90;;;;;;;;;;4963096;28;20056;-74
2022/07/25 13:21:50;;;;;;;7.40;6.05;;;;;;;;;;4947549;29;20051;-74
2022/07/25 13:24:18;;;;;;;10.85;6.05;;;;;;;;;;4948261;29;20051;-74
2022/07/25 13:26:45;;;;;;;21.85;7.10;;;;;;;;;;4946254;28;20138;-75
2022/07/25 13:29:13;;;;;;;14.27;5.95;;;;;;;;;;4947501;28;20083;-75
2022/07/25 13:31:40;;;;;;;8.15;5.78;;;;;;;;;;4944879;28;20044;-75
2022/07/25 13:34:09;;;;;;;10.05;6.05;;;;;;;;;;4949047;28;20054;-75
2022/07/25 13:36:37;;;;;;;7.25;5.60;;;;;;;;;;4949820;28;20750;-75
2022/07/25 13:39:04;;;;;;;13.05;5.63;;;;;;;;;;4986409;23;20080;-75
2022/07/25 13:44:57;;;;;;;13.93;6.32;;;;;;;;;;4973725;28;20054;-75
2022/07/25 13:47:25;;;;;;;8.18;5.47;;;;;;;;;;4974042;28;20094;-75
2022/07/25 13:53:09;;;;;;;12.20;5.63;;;;;;;;;;4982518;23;20046;-75
2022/07/25 13:55:36;;;;;;;9.00;5.60;;;;;;;;;;4999171;28;20469;-74
2022/07/25 13:58:04;;;;;;;7.53;5.80;;;;;;;;;;4985179;28;20110;-75
2022/07/25 14:03:12;;;;;;;12.57;5.70;;;;;;;;;;4999432;28;20124;-73
2022/07/25 14:05:39;;;;;;;11.23;6.05;;;;;;;;;;5002470;28;20147;-74
2022/07/25 14:08:07;;;;;;;11.45;5.70;;;;;;;;;;5016383;28;20133;-75
2022/07/25 14:10:35;;;;;;;9.25;5.85;;;;;;;;;;5011853;28;20073;-75
2022/07/25 14:13:02;;;;;;;8.80;5.38;;;;;;;;;;5010282;28;20128;-75
2022/07/25 14:15:30;;;;;;;10.40;5.32;;;;;;;;;;5010667;28;20160;-73
2022/07/25 14:17:57;;;;;;;10.77;5.97;;;;;;;;;;5007069;28;20137;-74
2022/07/25 14:20:24;;;;;;;16.13;5.78;;;;;;;;;;5009457;28;20149;-75
2022/07/25 14:22:52;;;;;;;12.48;6.32;;;;;;;;;;5011808;28;20077;-76
2022/07/25 14:25:19;;;;;;;13.18;6.15;;;;;;;;;;5012785;28;20469;-76
2022/07/25 14:27:47;;;;;;;7.88;5.40;;;;;;;;;;5012250;28;20073;-75
2022/07/25 14:30:14;;;;;;;12.30;5.45;;;;;;;;;;5007262;28;20073;-75
2022/07/25 14:32:41;;;;;;;6.78;5.50;;;;;;;;;;5008135;28;20132;-75
2022/07/25 14:35:10;;;;;;;9.45;5.65;;;;;;;;;;5006200;28;20538;-76
2022/07/25 14:37:37;;;;;;;8.27;5.70;;;;;;;;;;5007733;28;20108;-76
2022/07/25 14:40:05;;;;;;;6.30;5.47;;;;;;;;;;5007757;28;20133;-76
2022/07/25 14:42:33;;;;;;;10.32;6.05;;;;;;;;;;5009318;28;20050;-76
2022/07/25 14:45:00;;;;;;;11.93;5.82;;;;;;;;;;5006988;28;20076;-76
2022/07/25 14:47:27;;;;;;;9.82;5.80;;;;;;;;;;5009387;28;20129;-76
2022/07/25 14:49:55;;;;;;;9.50;6.18;;;;;;;;;;5008587;28;20128;-75
2022/07/25 14:52:23;;;;;;;7.93;5.72;;;;;;;;;;5008079;28;20069;-76
2022/07/25 14:54:50;;;;;;;7.45;5.28;;;;;;;;;;5010356;28;20562;-77
2022/07/25 14:57:18;;;;;;;9.68;6.13;;;;;;;;;;5012096;28;20197;-76
2022/07/25 14:59:45;;;;;;;10.20;6.00;;;;;;;;;;5010833;28;20050;-76
2022/07/25 15:02:12;;;;;;;12.38;6.22;;;;;;;;;;5002132;28;20169;-74
2022/07/25 15:04:40;;;;;;;9.80;6.05;;;;;;;;;;5001678;28;20425;-75
2022/07/25 15:09:58;;;;;;;9.52;5.43;;;;;;;;;;4972648;28;20554;-77